createdAt,value
2023-08-18T00:00:02.256Z,95459.75
2023-08-18T00:02:57.495Z,95464.81
2023-08-18T00:05:25.634Z,95463.50
2023-08-18T00:07:53.789Z,95464.81
2023-08-18T00:10:21.680Z,95472.91
2023-08-18T00:12:49.840Z,95471.41
2023-08-18T00:15:18.075Z,95480.69
2023-08-18T00:17:46.197Z,95475.56
2023-08-18T00:20:14.074Z,95477.78
2023-08-18T00:22:42.223Z,95469.06
2023-08-18T00:25:10.373Z,95470.78
2023-08-18T00:27:39.140Z,95474.16
2023-08-18T00:30:08.602Z,95469.06
2023-08-18T00:32:36.961Z,95472.09
2023-08-18T00:35:05.160Z,95475.50
2023-08-18T00:37:33.443Z,95466.78
2023-08-18T00:40:01.229Z,95462.78
2023-08-18T00:42:30.580Z,95465.97
2023-08-18T00:44:59.154Z,95472.38
2023-08-18T00:47:31.212Z,95465.88
2023-08-18T00:50:00.688Z,95464.34
2023-08-18T00:52:29.400Z,95459.78
2023-08-18T00:54:58.821Z,95458.06
2023-08-18T00:57:28.101Z,95465.44
2023-08-18T00:59:58.331Z,95464.06
2023-08-18T01:02:26.882Z,95465.91
2023-08-18T01:04:57.323Z,95468.34
2023-08-18T01:07:25.504Z,95465.28
2023-08-18T01:09:54.742Z,95464.56
2023-08-18T01:12:22.835Z,95467.94
2023-08-18T01:15:24.326Z,95460.75
2023-08-18T01:17:56.235Z,95465.59
2023-08-18T01:20:24.639Z,95461.22
2023-08-18T01:23:04.510Z,95470.69
2023-08-18T01:25:34.771Z,95463.69
2023-08-18T01:28:04.378Z,95471.25
2023-08-18T01:30:49.254Z,95465.00
2023-08-18T01:33:27.203Z,95476.94
2023-08-18T01:36:04.950Z,95467.09
2023-08-18T01:38:34.669Z,95460.47
2023-08-18T01:41:06.701Z,95475.72
2023-08-18T01:43:35.095Z,95472.16
2023-08-18T01:46:03.122Z,95471.72
2023-08-18T01:48:31.863Z,95470.59
2023-08-18T01:50:59.784Z,95469.66
2023-08-18T01:53:30.300Z,95459.06
2023-08-18T01:56:02.445Z,95461.69
2023-08-18T01:58:30.974Z,95469.22
2023-08-18T02:00:59.873Z,95476.75
2023-08-18T02:03:29.167Z,95478.53
2023-08-18T02:06:00.440Z,95474.31
2023-08-18T02:08:28.937Z,95475.16
2023-08-18T02:11:07.129Z,95473.06
2023-08-18T02:13:36.133Z,95480.84
2023-08-18T02:16:04.568Z,95479.41
2023-08-18T02:18:52.724Z,95483.44
2023-08-18T02:21:20.751Z,95490.06
2023-08-18T02:23:48.949Z,95485.94
2023-08-18T02:26:18.931Z,95495.97
2023-08-18T02:28:47.079Z,95496.22
2023-08-18T02:31:15.034Z,95494.16
2023-08-18T02:33:44.182Z,95489.44
2023-08-18T02:36:13.721Z,95492.25
2023-08-18T02:38:42.137Z,95492.16
2023-08-18T02:41:09.870Z,95494.84
2023-08-18T02:43:39.887Z,95504.56
2023-08-18T02:46:07.860Z,95502.91
2023-08-18T02:48:35.998Z,95495.38
2023-08-18T02:51:04.690Z,95502.00
2023-08-18T02:53:34.071Z,95493.94
2023-08-18T02:56:02.736Z,95493.25
2023-08-18T02:58:33.367Z,95489.28
2023-08-18T03:01:06.475Z,95494.84
2023-08-18T03:03:36.878Z,95493.97
2023-08-18T03:06:09.469Z,95481.75
2023-08-18T03:08:40.650Z,95488.09
2023-08-18T03:11:09.642Z,95494.09
2023-08-18T03:13:38.295Z,95494.53
2023-08-18T03:16:06.190Z,95486.63
2023-08-18T03:18:35.345Z,95480.41
2023-08-18T03:21:04.906Z,95475.34
2023-08-18T03:23:34.189Z,95488.66
2023-08-18T03:26:06.131Z,95474.69
2023-08-18T03:28:37.827Z,95477.00
2023-08-18T03:31:07.991Z,95481.25
2023-08-18T03:33:37.328Z,95487.34
2023-08-18T03:36:09.090Z,95485.47
2023-08-18T03:38:38.560Z,95489.50
2023-08-18T03:41:08.271Z,95486.31
2023-08-18T03:43:36.786Z,95483.28
2023-08-18T03:46:19.265Z,95490.91
2023-08-18T03:48:50.658Z,95483.69
2023-08-18T03:51:21.289Z,95485.81
2023-08-18T03:53:49.505Z,95490.91
2023-08-18T03:56:18.595Z,95496.53
2023-08-18T03:58:47.774Z,95494.59
2023-08-18T04:01:16.768Z,95503.19
2023-08-18T04:03:46.571Z,95490.50
2023-08-18T04:06:15.025Z,95504.91
2023-08-18T04:08:45.573Z,95499.97
2023-08-18T04:11:13.985Z,95501.84
2023-08-18T04:13:42.269Z,95506.44
2023-08-18T04:16:11.469Z,95500.44
2023-08-18T04:18:41.964Z,95497.03
2023-08-18T04:21:10.041Z,95495.16
2023-08-18T04:23:38.464Z,95493.78
2023-08-18T04:26:06.511Z,95492.47
2023-08-18T04:28:34.792Z,95490.97
2023-08-18T04:31:02.822Z,95489.06
2023-08-18T04:33:45.223Z,95480.41
2023-08-18T04:36:13.199Z,95484.09
2023-08-18T04:38:42.393Z,95486.94
2023-08-18T04:41:16.158Z,95481.53
2023-08-18T04:43:44.449Z,95483.44
2023-08-18T04:46:12.309Z,95487.03
2023-08-18T04:48:40.470Z,95477.75
2023-08-18T04:51:08.629Z,95477.75
2023-08-18T04:53:39.374Z,95477.66
2023-08-18T04:56:07.236Z,95479.56
2023-08-18T04:58:36.457Z,95474.25
2023-08-18T05:01:06.315Z,95474.06
2023-08-18T05:03:35.437Z,95467.84
2023-08-18T05:06:05.884Z,95470.13
2023-08-18T05:08:34.583Z,95471.09
2023-08-18T05:11:12.733Z,95471.50
2023-08-18T05:13:42.497Z,95466.19
2023-08-18T05:16:10.834Z,95465.81
2023-08-18T05:18:39.078Z,95479.84
2023-08-18T05:21:06.853Z,95478.50
2023-08-18T05:23:35.938Z,95470.38
2023-08-18T05:26:06.258Z,95476.84
2023-08-18T05:28:34.628Z,95473.59
2023-08-18T05:31:02.721Z,95473.41
2023-08-18T05:33:30.868Z,95483.66
2023-08-18T05:36:00.417Z,95482.75
2023-08-18T05:38:28.957Z,95478.38
2023-08-18T05:41:09.500Z,95476.69
2023-08-18T05:43:41.119Z,95477.25
2023-08-18T05:46:09.682Z,95478.97
2023-08-18T05:48:38.178Z,95470.63
2023-08-18T05:51:06.237Z,95472.91
2023-08-18T05:53:35.208Z,95466.28
2023-08-18T05:56:03.961Z,95464.56
2023-08-18T05:58:32.289Z,95460.56
2023-08-18T06:01:00.317Z,95456.03
2023-08-18T06:03:28.545Z,95465.13
2023-08-18T06:06:00.217Z,95462.47
2023-08-18T06:08:28.749Z,95453.94
2023-08-18T06:10:57.729Z,95459.06
2023-08-18T06:13:25.951Z,95453.75
2023-08-18T06:15:55.789Z,95466.28
2023-08-18T06:18:24.020Z,95456.22
2023-08-18T06:20:52.270Z,95451.47
2023-08-18T06:23:20.408Z,95453.00
2023-08-18T06:25:49.350Z,95447.28
2023-08-18T06:28:17.476Z,95441.38
2023-08-18T06:30:45.347Z,95443.88
2023-08-18T06:33:13.963Z,95445.00
2023-08-18T06:35:41.790Z,95454.31
2023-08-18T06:38:09.928Z,95445.75
2023-08-18T06:40:37.712Z,95443.88
2023-08-18T06:43:06.673Z,95434.16
2023-08-18T06:45:34.441Z,95442.91
2023-08-18T06:48:02.739Z,95434.72
2023-08-18T06:50:30.587Z,95437.16
2023-08-18T06:52:58.747Z,95440.38
2023-08-18T06:55:29.833Z,95429.38
2023-08-18T06:58:13.916Z,95438.47
2023-08-18T07:00:41.801Z,95426.69
2023-08-18T07:03:10.108Z,95444.53
2023-08-18T07:05:38.089Z,95433.50
2023-08-18T07:08:06.482Z,95436.53
2023-08-18T07:10:34.210Z,95426.81
2023-08-18T07:13:04.537Z,95419.78
2023-08-18T07:15:34.825Z,95421.28
2023-08-18T07:18:03.424Z,95430.44
2023-08-18T07:20:31.445Z,95416.38
2023-08-18T07:22:59.566Z,95418.59
2023-08-18T07:25:27.616Z,95422.38
2023-08-18T07:27:55.750Z,95416.28
2023-08-18T07:30:24.642Z,95420.28
2023-08-18T07:32:53.059Z,95423.13
2023-08-18T07:35:21.848Z,95416.66
2023-08-18T07:40:21.670Z,95418.69
2023-08-18T07:42:50.791Z,95417.91
2023-08-18T07:45:18.631Z,95418.47
2023-08-18T07:47:48.455Z,95417.69
2023-08-18T07:50:17.426Z,95416.19
2023-08-18T07:52:45.610Z,95414.03
2023-08-18T07:55:13.615Z,95414.22
2023-08-18T07:57:41.929Z,95414.56
2023-08-18T08:00:15.907Z,95413.03
2023-08-18T08:02:46.150Z,95416.06
2023-08-18T08:05:15.732Z,95418.50
2023-08-18T08:07:46.981Z,95412.22
2023-08-18T08:10:15.072Z,95419.09
2023-08-18T08:12:43.277Z,95409.38
2023-08-18T08:15:13.121Z,95418.69
2023-08-18T08:17:41.486Z,95408.44
2023-08-18T08:20:17.039Z,95411.06
2023-08-18T08:22:48.749Z,95419.97
2023-08-18T08:25:17.671Z,95403.56
2023-08-18T08:28:09.342Z,95384.84
2023-08-18T08:30:39.918Z,95408.31
2023-08-18T08:33:09.934Z,95412.44
2023-08-18T08:35:37.876Z,95398.00
2023-08-18T08:38:06.068Z,95394.63
2023-08-18T08:40:34.138Z,95403.78
2023-08-18T08:43:04.472Z,95391.38
2023-08-18T08:45:34.469Z,95390.03
2023-08-18T08:48:08.871Z,95392.81
2023-08-18T08:50:42.628Z,95390.75
2023-08-18T08:53:15.148Z,95389.97
2023-08-18T08:55:44.054Z,95392.25
2023-08-18T08:58:14.466Z,95380.81
2023-08-18T09:00:43.719Z,95377.91
2023-08-18T09:03:13.524Z,95376.91
2023-08-18T09:05:41.703Z,95375.72
2023-08-18T09:08:10.354Z,95373.03
2023-08-18T09:10:40.580Z,95372.69
2023-08-18T09:13:10.490Z,95376.50
2023-08-18T09:15:38.327Z,95372.25
2023-08-18T09:18:07.421Z,95381.75
2023-08-18T09:20:36.488Z,95374.88
2023-08-18T09:23:05.259Z,95368.56
2023-08-18T09:25:35.740Z,95367.38
2023-08-18T09:28:15.652Z,95364.88
2023-08-18T09:30:44.161Z,95355.56
2023-08-18T09:33:12.492Z,95359.00
2023-08-18T09:35:40.204Z,95366.56
2023-08-18T09:38:13.910Z,95360.59
2023-08-18T09:40:41.753Z,95366.06
2023-08-18T09:43:09.835Z,95362.03
2023-08-18T09:45:42.006Z,95361.19
2023-08-18T09:48:13.285Z,95359.75
2023-08-18T09:50:47.281Z,95355.53
2023-08-18T09:53:17.170Z,95354.81
2023-08-18T09:55:46.005Z,95351.78
2023-08-18T09:58:32.893Z,95359.59
2023-08-18T10:01:00.985Z,95347.31
2023-08-18T10:03:32.562Z,95347.84
2023-08-18T10:06:01.853Z,95351.78
2023-08-18T10:08:32.591Z,95334.63
2023-08-18T10:11:03.242Z,95346.84
2023-08-18T10:13:34.911Z,95343.72
2023-08-18T10:16:05.867Z,95338.16
2023-08-18T10:18:34.616Z,95339.19
2023-08-18T10:21:02.990Z,95326.72
2023-08-18T10:23:32.609Z,95327.56
2023-08-18T10:26:05.266Z,95335.44
2023-08-18T10:28:36.731Z,95329.56
2023-08-18T10:31:10.972Z,95329.72
2023-08-18T10:33:50.346Z,95324.56
2023-08-18T10:36:23.361Z,95326.84
2023-08-18T10:38:53.692Z,95328.97
2023-08-18T10:41:30.527Z,95320.09
2023-08-18T10:43:59.866Z,95317.72
2023-08-18T10:46:36.364Z,95323.59
2023-08-18T10:49:05.145Z,95319.53
2023-08-18T10:51:34.607Z,95320.94
2023-08-18T10:54:08.991Z,95319.22
2023-08-18T10:56:37.225Z,95312.00
2023-08-18T10:59:05.947Z,95308.56
2023-08-18T11:01:33.788Z,95307.22
2023-08-18T11:04:05.156Z,95299.41
2023-08-18T11:06:33.280Z,95310.00
2023-08-18T11:09:01.566Z,95302.75
2023-08-18T11:11:30.184Z,95302.31
2023-08-18T11:13:58.943Z,95293.56
2023-08-18T11:16:26.902Z,95295.13
2023-08-18T11:18:55.187Z,95293.78
2023-08-18T11:21:23.008Z,95295.44
2023-08-18T11:23:51.210Z,95288.69
2023-08-18T11:26:20.076Z,95281.47
2023-08-18T11:28:48.388Z,95283.28
2023-08-18T11:31:16.241Z,95274.38
2023-08-18T11:33:44.755Z,95275.59
2023-08-18T11:36:13.004Z,95269.69
2023-08-18T11:38:41.205Z,95274.69
2023-08-18T11:41:10.300Z,95276.66
2023-08-18T11:43:52.311Z,95268.06
2023-08-18T11:46:23.719Z,95275.88
2023-08-18T11:48:53.937Z,95262.78
2023-08-18T11:51:22.086Z,95264.88
2023-08-18T11:53:50.172Z,95257.38
2023-08-18T11:56:18.505Z,95256.66
2023-08-18T11:58:47.031Z,95262.84
2023-08-18T12:01:14.854Z,95248.06
2023-08-18T12:03:43.840Z,95249.28
2023-08-18T12:06:25.198Z,95239.00
2023-08-18T12:08:53.393Z,95237.50
2023-08-18T12:11:21.229Z,95246.22
2023-08-18T12:13:49.411Z,95250.78
2023-08-18T12:16:17.671Z,95244.28
2023-08-18T12:18:46.050Z,95236.63
2023-08-18T12:21:14.250Z,95231.06
2023-08-18T12:23:42.422Z,95226.84
2023-08-18T12:26:12.702Z,95235.44
2023-08-18T12:28:40.997Z,95226.22
2023-08-18T12:31:08.813Z,95228.19
2023-08-18T12:33:37.049Z,95219.63
2023-08-18T12:36:05.521Z,95219.63
2023-08-18T12:38:34.934Z,95200.03
2023-08-18T12:41:04.334Z,95204.69
2023-08-18T12:43:32.542Z,95210.59
2023-08-18T12:46:01.457Z,95214.97
2023-08-18T12:48:29.776Z,95226.72
2023-08-18T12:51:21.957Z,95227.59
2023-08-18T12:53:50.236Z,95218.72
2023-08-18T12:56:18.050Z,95226.97
2023-08-18T12:58:49.051Z,95216.75
2023-08-18T13:01:17.097Z,95232.09
2023-08-18T13:03:45.288Z,95226.19
2023-08-18T13:06:13.433Z,95230.41
2023-08-18T13:08:41.803Z,95228.00
2023-08-18T13:11:14.373Z,95219.09
2023-08-18T13:13:42.956Z,95218.81
2023-08-18T13:16:11.162Z,95231.91
2023-08-18T13:18:41.901Z,95224.84
2023-08-18T13:21:10.406Z,95237.06
2023-08-18T13:23:41.724Z,95234.66
2023-08-18T13:26:13.236Z,95232.72
2023-08-18T13:28:43.096Z,95233.91
2023-08-18T13:31:10.945Z,95238.28
2023-08-18T13:33:39.134Z,95245.19
2023-08-18T13:36:07.563Z,95233.59
2023-08-18T13:38:36.005Z,95237.06
2023-08-18T13:41:03.935Z,95235.22
2023-08-18T13:43:32.124Z,95256.31
2023-08-18T13:46:00.243Z,95259.03
2023-08-18T13:48:28.607Z,95263.69
2023-08-18T13:50:56.554Z,95263.56
2023-08-18T13:53:24.978Z,95269.56
2023-08-18T13:55:53.066Z,95260.25
2023-08-18T13:58:21.346Z,95270.00
2023-08-18T14:00:49.278Z,95270.94
2023-08-18T14:03:18.169Z,95278.44
2023-08-18T14:05:46.603Z,95276.03
2023-08-18T14:08:14.860Z,95269.09
2023-08-18T14:10:43.170Z,95280.84
2023-08-18T14:13:11.514Z,95286.22
2023-08-18T14:15:39.387Z,95286.81
2023-08-18T14:18:08.470Z,95296.59
2023-08-18T14:20:37.921Z,95294.19
2023-08-18T14:23:07.237Z,95305.41
2023-08-18T14:25:36.178Z,95316.56
2023-08-18T14:28:04.727Z,95313.84
2023-08-18T14:30:33.327Z,95316.97
2023-08-18T14:33:04.037Z,95311.25
2023-08-18T14:35:31.937Z,95320.44
2023-08-18T14:38:01.994Z,95324.31
2023-08-18T14:40:30.147Z,95325.34
2023-08-18T14:43:14.833Z,95320.22
2023-08-18T14:45:45.269Z,95324.09
2023-08-18T14:48:17.136Z,95333.28
2023-08-18T14:50:45.379Z,95329.50
2023-08-18T14:53:14.129Z,95318.50
2023-08-18T14:55:43.078Z,95333.38
2023-08-18T14:58:11.283Z,95321.59
2023-08-18T15:00:39.108Z,95334.03
2023-08-18T15:03:07.476Z,95331.63
2023-08-18T15:05:36.309Z,95335.31
2023-08-18T15:08:05.378Z,95341.09
2023-08-18T15:10:33.400Z,95338.50
2023-08-18T15:13:01.755Z,95349.44
2023-08-18T15:15:29.603Z,95350.88
2023-08-18T15:17:58.026Z,95336.81
2023-08-18T15:20:26.904Z,95347.75
2023-08-18T15:22:57.499Z,95348.59
2023-08-18T15:25:25.418Z,95352.78
2023-08-18T15:27:53.642Z,95341.16
2023-08-18T15:30:21.496Z,95348.06
2023-08-18T15:32:50.399Z,95341.81
2023-08-18T15:35:18.268Z,95338.78
2023-08-18T15:37:46.558Z,95348.38
2023-08-18T15:40:17.395Z,95344.06
2023-08-18T15:42:46.083Z,95344.47
2023-08-18T15:45:16.125Z,95349.66
2023-08-18T15:47:44.774Z,95355.03
2023-08-18T15:50:12.826Z,95351.66
2023-08-18T15:52:41.093Z,95357.53
2023-08-18T15:55:09.016Z,95357.00
2023-08-18T15:57:37.373Z,95363.13
2023-08-18T16:00:05.726Z,95370.41
2023-08-18T16:02:41.334Z,95375.56
2023-08-18T16:05:10.839Z,95387.75
2023-08-18T16:07:39.034Z,95382.25
2023-08-18T16:10:07.478Z,95390.25
2023-08-18T16:12:35.942Z,95381.53
2023-08-18T16:17:35.785Z,95391.09
2023-08-18T16:20:03.859Z,95382.53
2023-08-18T16:22:32.244Z,95376.66
2023-08-18T16:25:01.538Z,95374.38
2023-08-18T16:27:30.114Z,95378.97
2023-08-18T16:29:58.274Z,95378.97
2023-08-18T16:32:27.177Z,95389.59
2023-08-18T16:34:57.110Z,95392.47
2023-08-18T16:37:25.890Z,95397.44
2023-08-18T16:39:53.952Z,95401.78
2023-08-18T16:42:22.823Z,95410.16
2023-08-18T16:44:50.846Z,95414.91
2023-08-18T16:47:19.250Z,95409.97
2023-08-18T16:49:47.297Z,95409.44
2023-08-18T16:52:15.854Z,95422.34
2023-08-18T16:54:43.776Z,95423.16
2023-08-18T16:57:12.014Z,95422.06
2023-08-18T16:59:39.843Z,95441.47
2023-08-18T17:02:08.088Z,95443.38
2023-08-18T17:04:36.702Z,95440.13
2023-08-18T17:07:06.827Z,95438.81
2023-08-18T17:09:37.244Z,95442.81
2023-08-18T17:12:06.332Z,95437.69
2023-08-18T17:14:34.301Z,95450.25
2023-08-18T17:17:02.557Z,95461.84
2023-08-18T17:19:30.754Z,95475.72
2023-08-18T17:21:59.033Z,95485.97
2023-08-18T17:24:27.082Z,95484.09
2023-08-18T17:26:55.378Z,95486.00
2023-08-18T17:29:23.322Z,95497.38
2023-08-18T17:31:53.831Z,95506.31
2023-08-18T17:34:21.823Z,95501.00
2023-08-18T17:36:50.133Z,95500.84
2023-08-18T17:39:18.568Z,95500.44
2023-08-18T17:41:46.942Z,95507.28
2023-08-18T17:44:14.708Z,95498.19
2023-08-18T17:46:42.876Z,95500.44
2023-08-18T17:49:10.802Z,95496.25
2023-08-18T17:51:38.961Z,95506.53
2023-08-18T17:54:06.907Z,95500.06
2023-08-18T17:56:35.142Z,95498.75
2023-08-18T17:59:03.974Z,95496.66
2023-08-18T18:01:32.187Z,95490.94
2023-08-18T18:04:04.761Z,95496.09
2023-08-18T18:06:33.305Z,95480.16
2023-08-18T18:09:01.594Z,95486.94
2023-08-18T18:11:29.963Z,95491.69
2023-08-18T18:13:57.723Z,95492.47
2023-08-18T18:16:25.899Z,95497.38
2023-08-18T18:18:53.844Z,95506.88
2023-08-18T18:21:22.012Z,95503.84
2023-08-18T18:23:49.912Z,95506.31
2023-08-18T18:26:18.523Z,95502.34
2023-08-18T18:28:46.427Z,95500.81
2023-08-18T18:31:14.833Z,95487.16
2023-08-18T18:33:42.670Z,95497.19
2023-08-18T18:36:11.534Z,95498.53
2023-08-18T18:38:41.323Z,95501.94
2023-08-18T18:41:09.891Z,95507.44
2023-08-18T18:43:38.069Z,95508.78
2023-08-18T18:46:06.308Z,95511.81
2023-08-18T18:48:34.179Z,95518.84
2023-08-18T18:51:06.631Z,95517.50
2023-08-18T18:53:34.476Z,95529.28
2023-08-18T18:56:03.175Z,95536.09
2023-08-18T18:58:30.944Z,95541.41
2023-08-18T19:00:59.622Z,95559.81
2023-08-18T19:03:27.603Z,95582.44
2023-08-18T19:05:55.909Z,95586.59
2023-08-18T19:08:23.686Z,95592.09
2023-08-18T19:10:57.458Z,95584.13
2023-08-18T19:13:27.111Z,95589.44
2023-08-18T19:15:55.997Z,95590.00
2023-08-18T19:18:26.663Z,95590.16
2023-08-18T19:20:57.440Z,95592.66
2023-08-18T19:23:25.455Z,95608.75
2023-08-18T19:25:54.329Z,95623.53
2023-08-18T19:28:22.735Z,95646.84
2023-08-18T19:30:50.985Z,95639.56
2023-08-18T19:33:18.782Z,95654.72
2023-08-18T19:35:51.880Z,95650.91
2023-08-18T19:38:19.729Z,95662.69
2023-08-18T19:40:52.506Z,95660.78
2023-08-18T19:43:20.874Z,95663.25
2023-08-18T19:45:54.517Z,95667.59
2023-08-18T19:48:22.469Z,95667.59
2023-08-18T19:50:52.184Z,95678.44
2023-08-18T19:53:21.168Z,95676.34
2023-08-18T19:55:51.132Z,95682.44
2023-08-18T19:58:19.463Z,95675.78
2023-08-18T20:00:48.820Z,95682.78
2023-08-18T20:03:17.041Z,95684.50
2023-08-18T20:05:45.230Z,95693.78
2023-08-18T20:08:13.193Z,95695.28
2023-08-18T20:10:43.165Z,95695.88
2023-08-18T20:13:11.071Z,95698.50
2023-08-18T20:15:39.781Z,95710.22
2023-08-18T20:18:07.892Z,95717.25
2023-08-18T20:20:37.956Z,95722.75
2023-08-18T20:23:06.581Z,95738.84
2023-08-18T20:25:34.752Z,95747.50
2023-08-18T20:28:02.554Z,95756.28
2023-08-18T20:30:30.672Z,95773.63
2023-08-18T20:32:58.839Z,95807.53
2023-08-18T20:35:27.376Z,95804.66
2023-08-18T20:37:56.200Z,95835.81
2023-08-18T20:40:25.222Z,95831.50
2023-08-18T20:42:53.030Z,95829.06
2023-08-18T20:45:21.400Z,95814.47
2023-08-18T20:47:49.823Z,95816.91
2023-08-18T20:50:17.932Z,95830.22
2023-08-18T20:52:45.727Z,95842.91
2023-08-18T20:55:14.391Z,95837.88
2023-08-18T20:57:49.745Z,95839.09
2023-08-18T21:00:18.739Z,95828.06
2023-08-18T21:02:46.601Z,95810.94
2023-08-18T21:05:15.254Z,95803.94
2023-08-18T21:07:45.779Z,95809.06
2023-08-18T21:10:14.544Z,95803.47
2023-08-18T21:12:44.562Z,95803.03
2023-08-18T21:15:13.421Z,95795.84
2023-08-18T21:17:43.663Z,95775.91
2023-08-18T21:20:12.853Z,95757.69
2023-08-18T21:22:46.464Z,95733.78
2023-08-18T21:25:19.263Z,95705.66
2023-08-18T21:27:49.636Z,95662.47
2023-08-18T21:30:19.738Z,95636.88
2023-08-18T21:32:48.337Z,95647.03
2023-08-18T21:35:16.714Z,95672.31
2023-08-18T21:37:44.763Z,95686.34
2023-08-18T21:40:13.579Z,95670.16
2023-08-18T21:42:41.355Z,95652.88
2023-08-18T21:45:09.981Z,95640.69
2023-08-18T21:47:38.182Z,95638.72
2023-08-18T21:50:07.371Z,95637.72
2023-08-18T21:52:35.476Z,95628.16
2023-08-18T21:55:04.375Z,95632.22
2023-08-18T21:57:32.144Z,95626.22
2023-08-18T22:00:00.685Z,95629.50
2023-08-18T22:02:28.571Z,95631.22
2023-08-18T22:04:59.390Z,95636.47
2023-08-18T22:07:27.610Z,95640.91
2023-08-18T22:09:55.884Z,95642.44
2023-08-18T22:12:23.642Z,95650.38
2023-08-18T22:14:53.155Z,95668.69
2023-08-18T22:17:21.168Z,95677.41
2023-08-18T22:19:49.401Z,95667.06
2023-08-18T22:22:28.211Z,95665.53
2023-08-18T22:25:02.227Z,95653.09
2023-08-18T22:27:32.141Z,95646.59
2023-08-18T22:30:00.568Z,95631.53
2023-08-18T22:32:28.735Z,95639.38
2023-08-18T22:34:57.167Z,95637.63
2023-08-18T22:37:26.090Z,95635.22
2023-08-18T22:39:56.380Z,95627.47
2023-08-18T22:42:24.365Z,95623.25
2023-08-18T22:44:52.146Z,95627.41
2023-08-18T22:47:22.371Z,95621.94
2023-08-18T22:49:50.220Z,95617.13
2023-08-18T22:52:18.585Z,95622.81
2023-08-18T22:54:47.033Z,95619.19
2023-08-18T22:57:15.300Z,95615.63
2023-08-18T22:59:43.254Z,95614.19
2023-08-18T23:02:11.642Z,95614.44
2023-08-18T23:04:39.503Z,95620.84
2023-08-18T23:07:07.690Z,95620.09
2023-08-18T23:09:35.592Z,95613.84
2023-08-18T23:12:03.765Z,95614.50
2023-08-18T23:14:32.037Z,95622.66
2023-08-18T23:16:59.842Z,95623.00
2023-08-18T23:19:28.148Z,95615.38
2023-08-18T23:21:55.944Z,95620.28
2023-08-18T23:24:24.367Z,95615.63
2023-08-18T23:26:52.280Z,95616.34
2023-08-18T23:29:20.593Z,95625.72
2023-08-18T23:31:48.737Z,95617.22
2023-08-18T23:34:21.043Z,95610.25
2023-08-18T23:36:49.035Z,95608.94
2023-08-18T23:39:17.183Z,95608.94
2023-08-18T23:41:45.684Z,95610.63
2023-08-18T23:44:14.274Z,95601.31
2023-08-18T23:46:42.204Z,95597.94
2023-08-18T23:49:10.462Z,95601.31
2023-08-18T23:51:38.791Z,95600.25
2023-08-18T23:54:07.620Z,95606.47
2023-08-18T23:56:35.578Z,95603.41
2023-08-18T23:59:04.261Z,95598.00
